sensor_id;sensor_type;location;lat;lon;timestamp;P1;durP1;ratioP1;P2;durP2;ratioP2
59734;SDS011;64362;45.620;4.920;2023-03-30T00:00:37;8.35;;;3.75;;
59734;SDS011;64362;45.620;4.920;2023-03-30T00:03:03;6.60;;;3.80;;
59734;SDS011;64362;45.620;4.920;2023-03-30T00:05:29;6.75;;;3.63;;
59734;SDS011;64362;45.620;4.920;2023-03-30T00:07:54;8.18;;;4.07;;
59734;SDS011;64362;45.620;4.920;2023-03-30T00:10:20;7.63;;;3.80;;
59734;SDS011;64362;45.620;4.920;2023-03-30T00:12:46;6.30;;;3.47;;
59734;SDS011;64362;45.620;4.920;2023-03-30T00:15:15;6.93;;;3.85;;
59734;SDS011;64362;45.620;4.920;2023-03-30T00:17:43;6.32;;;3.45;;
59734;SDS011;64362;45.620;4.920;2023-03-30T00:20:08;4.95;;;3.83;;
59734;SDS011;64362;45.620;4.920;2023-03-30T00:22:44;6.95;;;3.83;;
59734;SDS011;64362;45.620;4.920;2023-03-30T00:25:12;5.47;;;3.30;;
59734;SDS011;64362;45.620;4.920;2023-03-30T00:27:39;6.38;;;4.07;;
59734;SDS011;64362;45.620;4.920;2023-03-30T00:30:05;6.13;;;4.05;;
59734;SDS011;64362;45.620;4.920;2023-03-30T00:32:32;5.55;;;3.60;;
59734;SDS011;64362;45.620;4.920;2023-03-30T00:34:58;6.68;;;4.20;;
59734;SDS011;64362;45.620;4.920;2023-03-30T00:37:24;6.05;;;3.78;;
59734;SDS011;64362;45.620;4.920;2023-03-30T00:39:51;7.10;;;4.03;;
59734;SDS011;64362;45.620;4.920;2023-03-30T00:42:17;6.93;;;3.72;;
59734;SDS011;64362;45.620;4.920;2023-03-30T00:47:43;6.90;;;3.95;;
59734;SDS011;64362;45.620;4.920;2023-03-30T00:50:10;6.35;;;3.80;;
59734;SDS011;64362;45.620;4.920;2023-03-30T00:52:36;7.55;;;3.53;;
59734;SDS011;64362;45.620;4.920;2023-03-30T00:55:06;7.45;;;3.88;;
59734;SDS011;64362;45.620;4.920;2023-03-30T00:57:34;5.45;;;3.45;;
59734;SDS011;64362;45.620;4.920;2023-03-30T01:00:02;7.35;;;3.85;;
59734;SDS011;64362;45.620;4.920;2023-03-30T01:02:31;7.00;;;4.20;;
59734;SDS011;64362;45.620;4.920;2023-03-30T01:05:01;7.68;;;4.28;;
59734;SDS011;64362;45.620;4.920;2023-03-30T01:07:28;4.70;;;3.78;;
59734;SDS011;64362;45.620;4.920;2023-03-30T01:09:55;7.30;;;3.85;;
59734;SDS011;64362;45.620;4.920;2023-03-30T01:12:22;9.40;;;4.20;;
59734;SDS011;64362;45.620;4.920;2023-03-30T01:14:48;7.50;;;4.15;;
59734;SDS011;64362;45.620;4.920;2023-03-30T01:17:23;6.22;;;3.50;;
59734;SDS011;64362;45.620;4.920;2023-03-30T01:46:36;7.72;;;4.10;;
59734;SDS011;64362;45.620;4.920;2023-03-30T01:51:40;6.70;;;3.38;;
59734;SDS011;64362;45.620;4.920;2023-03-30T01:54:11;6.70;;;3.30;;
59734;SDS011;64362;45.620;4.920;2023-03-30T01:56:40;6.28;;;3.63;;
59734;SDS011;64362;45.620;4.920;2023-03-30T01:59:15;8.70;;;3.42;;
59734;SDS011;64362;45.620;4.920;2023-03-30T02:01:44;6.00;;;3.63;;
59734;SDS011;64362;45.620;4.920;2023-03-30T02:04:14;5.20;;;3.40;;
59734;SDS011;64362;45.620;4.920;2023-03-30T02:06:52;5.40;;;3.40;;
59734;SDS011;64362;45.620;4.920;2023-03-30T02:09:20;6.35;;;3.85;;
59734;SDS011;64362;45.620;4.920;2023-03-30T02:11:48;6.82;;;3.40;;
59734;SDS011;64362;45.620;4.920;2023-03-30T02:14:15;6.78;;;2.97;;
59734;SDS011;64362;45.620;4.920;2023-03-30T02:16:46;5.60;;;3.40;;
59734;SDS011;64362;45.620;4.920;2023-03-30T02:19:13;5.80;;;3.20;;
59734;SDS011;64362;45.620;4.920;2023-03-30T02:21:40;6.28;;;3.28;;
59734;SDS011;64362;45.620;4.920;2023-03-30T02:24:07;5.85;;;3.40;;
59734;SDS011;64362;45.620;4.920;2023-03-30T02:26:42;5.28;;;3.08;;
59734;SDS011;64362;45.620;4.920;2023-03-30T02:29:11;4.80;;;2.90;;
59734;SDS011;64362;45.620;4.920;2023-03-30T02:31:37;4.70;;;3.00;;
59734;SDS011;64362;45.620;4.920;2023-03-30T02:47:39;4.03;;;2.97;;
59734;SDS011;64362;45.620;4.920;2023-03-30T02:50:16;4.95;;;3.33;;
59734;SDS011;64362;45.620;4.920;2023-03-30T02:55:28;5.13;;;2.97;;
59734;SDS011;64362;45.620;4.920;2023-03-30T03:03:53;4.40;;;2.40;;
59734;SDS011;64362;45.620;4.920;2023-03-30T03:06:22;3.50;;;2.75;;
59734;SDS011;64362;45.620;4.920;2023-03-30T03:08:52;5.40;;;2.95;;
59734;SDS011;64362;45.620;4.920;2023-03-30T03:11:25;3.92;;;2.53;;
59734;SDS011;64362;45.620;4.920;2023-03-30T03:13:51;3.78;;;2.28;;
59734;SDS011;64362;45.620;4.920;2023-03-30T03:16:17;3.15;;;2.28;;
59734;SDS011;64362;45.620;4.920;2023-03-30T03:19:03;3.67;;;2.20;;
59734;SDS011;64362;45.620;4.920;2023-03-30T03:21:29;3.83;;;2.30;;
59734;SDS011;64362;45.620;4.920;2023-03-30T03:23:54;3.70;;;2.28;;
59734;SDS011;64362;45.620;4.920;2023-03-30T03:26:23;3.08;;;1.88;;
59734;SDS011;64362;45.620;4.920;2023-03-30T03:28:53;6.07;;;2.42;;
59734;SDS011;64362;45.620;4.920;2023-03-30T03:31:18;4.32;;;2.53;;
59734;SDS011;64362;45.620;4.920;2023-03-30T03:33:44;3.25;;;2.10;;
59734;SDS011;64362;45.620;4.920;2023-03-30T03:36:23;4.15;;;2.17;;
59734;SDS011;64362;45.620;4.920;2023-03-30T03:38:51;4.50;;;2.15;;
59734;SDS011;64362;45.620;4.920;2023-03-30T03:41:17;3.03;;;1.90;;
59734;SDS011;64362;45.620;4.920;2023-03-30T03:43:42;2.55;;;1.63;;
59734;SDS011;64362;45.620;4.920;2023-03-30T03:46:08;3.10;;;2.03;;
59734;SDS011;64362;45.620;4.920;2023-03-30T03:48:34;3.88;;;2.10;;
59734;SDS011;64362;45.620;4.920;2023-03-30T03:51:00;3.13;;;2.00;;
59734;SDS011;64362;45.620;4.920;2023-03-30T03:53:30;4.35;;;2.13;;
59734;SDS011;64362;45.620;4.920;2023-03-30T03:55:59;2.35;;;1.88;;
59734;SDS011;64362;45.620;4.920;2023-03-30T03:58:26;3.40;;;1.90;;
59734;SDS011;64362;45.620;4.920;2023-03-30T04:00:56;3.67;;;1.90;;
59734;SDS011;64362;45.620;4.920;2023-03-30T04:03:25;3.60;;;2.05;;
59734;SDS011;64362;45.620;4.920;2023-03-30T04:05:52;4.32;;;1.70;;
59734;SDS011;64362;45.620;4.920;2023-03-30T04:08:18;3.28;;;2.15;;
59734;SDS011;64362;45.620;4.920;2023-03-30T04:10:44;2.58;;;1.63;;
59734;SDS011;64362;45.620;4.920;2023-03-30T04:13:23;3.00;;;1.67;;
59734;SDS011;64362;45.620;4.920;2023-03-30T04:16:07;5.45;;;2.15;;
59734;SDS011;64362;45.620;4.920;2023-03-30T04:18:51;2.38;;;1.40;;
59734;SDS011;64362;45.620;4.920;2023-03-30T04:21:19;3.50;;;1.80;;
59734;SDS011;64362;45.620;4.920;2023-03-30T04:23:59;2.78;;;1.67;;
59734;SDS011;64362;45.620;4.920;2023-03-30T04:26:44;2.80;;;1.80;;
59734;SDS011;64362;45.620;4.920;2023-03-30T04:29:25;4.07;;;1.75;;
59734;SDS011;64362;45.620;4.920;2023-03-30T04:32:09;2.42;;;1.38;;
59734;SDS011;64362;45.620;4.920;2023-03-30T04:37:42;3.20;;;1.40;;
59734;SDS011;64362;45.620;4.920;2023-03-30T04:40:36;3.65;;;1.80;;
59734;SDS011;64362;45.620;4.920;2023-03-30T04:43:16;4.00;;;1.77;;
59734;SDS011;64362;45.620;4.920;2023-03-30T04:45:55;2.00;;;1.20;;
59734;SDS011;64362;45.620;4.920;2023-03-30T04:48:22;3.77;;;1.87;;
59734;SDS011;64362;45.620;4.920;2023-03-30T04:51:06;2.00;;;1.20;;
59734;SDS011;64362;45.620;4.920;2023-03-30T04:53:51;2.53;;;1.48;;
59734;SDS011;64362;45.620;4.920;2023-03-30T04:56:43;2.33;;;1.40;;
59734;SDS011;64362;45.620;4.920;2023-03-30T04:59:38;3.53;;;1.40;;
59734;SDS011;64362;45.620;4.920;2023-03-30T05:02:27;1.88;;;1.20;;
59734;SDS011;64362;45.620;4.920;2023-03-30T05:05:07;3.75;;;1.25;;
59734;SDS011;64362;45.620;4.920;2023-03-30T05:08:08;3.78;;;1.30;;
59734;SDS011;64362;45.620;4.920;2023-03-30T05:10:52;2.95;;;1.20;;
59734;SDS011;64362;45.620;4.920;2023-03-30T05:13:44;1.67;;;0.98;;
59734;SDS011;64362;45.620;4.920;2023-03-30T05:16:45;5.05;;;1.50;;
59734;SDS011;64362;45.620;4.920;2023-03-30T05:19:16;4.13;;;1.27;;
59734;SDS011;64362;45.620;4.920;2023-03-30T05:22:01;3.65;;;1.33;;
59734;SDS011;64362;45.620;4.920;2023-03-30T05:24:45;3.55;;;1.38;;
59734;SDS011;64362;45.620;4.920;2023-03-30T05:27:21;2.80;;;1.20;;
59734;SDS011;64362;45.620;4.920;2023-03-30T05:29:50;3.42;;;1.20;;
59734;SDS011;64362;45.620;4.920;2023-03-30T05:32:39;3.63;;;1.20;;
59734;SDS011;64362;45.620;4.920;2023-03-30T05:35:24;5.05;;;1.17;;
59734;SDS011;64362;45.620;4.920;2023-03-30T05:38:06;4.30;;;1.30;;
59734;SDS011;64362;45.620;4.920;2023-03-30T05:40:51;6.28;;;1.40;;
59734;SDS011;64362;45.620;4.920;2023-03-30T05:43:44;6.03;;;1.40;;
59734;SDS011;64362;45.620;4.920;2023-03-30T05:46:28;6.72;;;2.17;;
59734;SDS011;64362;45.620;4.920;2023-03-30T05:49:02;6.03;;;1.65;;
59734;SDS011;64362;45.620;4.920;2023-03-30T05:51:49;5.25;;;1.33;;
59734;SDS011;64362;45.620;4.920;2023-03-30T05:54:34;7.85;;;1.42;;
59734;SDS011;64362;45.620;4.920;2023-03-30T05:57:18;4.72;;;1.40;;
59734;SDS011;64362;45.620;4.920;2023-03-30T05:59:55;4.75;;;1.20;;
59734;SDS011;64362;45.620;4.920;2023-03-30T06:02:48;5.45;;;1.33;;
59734;SDS011;64362;45.620;4.920;2023-03-30T06:05:17;5.85;;;1.25;;
59734;SDS011;64362;45.620;4.920;2023-03-30T06:07:43;8.77;;;1.70;;
59734;SDS011;64362;45.620;4.920;2023-03-30T06:10:10;4.28;;;1.38;;
59734;SDS011;64362;45.620;4.920;2023-03-30T06:12:37;8.10;;;1.63;;
59734;SDS011;64362;45.620;4.920;2023-03-30T06:15:06;3.42;;;1.35;;
59734;SDS011;64362;45.620;4.920;2023-03-30T06:17:53;4.30;;;1.27;;
59734;SDS011;64362;45.620;4.920;2023-03-30T06:20:19;4.85;;;1.85;;
59734;SDS011;64362;45.620;4.920;2023-03-30T06:22:47;7.13;;;1.33;;
59734;SDS011;64362;45.620;4.920;2023-03-30T06:25:20;7.43;;;1.50;;
59734;SDS011;64362;45.620;4.920;2023-03-30T06:27:48;4.78;;;1.55;;
59734;SDS011;64362;45.620;4.920;2023-03-30T06:30:14;4.10;;;1.80;;
59734;SDS011;64362;45.620;4.920;2023-03-30T06:32:42;4.72;;;1.30;;
59734;SDS011;64362;45.620;4.920;2023-03-30T06:35:17;4.75;;;1.65;;
59734;SDS011;64362;45.620;4.920;2023-03-30T06:37:43;3.70;;;1.30;;
59734;SDS011;64362;45.620;4.920;2023-03-30T06:40:09;3.78;;;1.20;;
59734;SDS011;64362;45.620;4.920;2023-03-30T06:42:38;4.47;;;1.40;;
59734;SDS011;64362;45.620;4.920;2023-03-30T06:45:18;4.13;;;1.35;;
59734;SDS011;64362;45.620;4.920;2023-03-30T06:47:45;4.50;;;1.40;;
59734;SDS011;64362;45.620;4.920;2023-03-30T06:50:10;3.67;;;1.20;;
59734;SDS011;64362;45.620;4.920;2023-03-30T06:52:43;5.90;;;1.48;;
59734;SDS011;64362;45.620;4.920;2023-03-30T06:55:08;4.65;;;1.40;;
59734;SDS011;64362;45.620;4.920;2023-03-30T06:57:35;3.55;;;1.35;;
59734;SDS011;64362;45.620;4.920;2023-03-30T07:00:01;3.53;;;1.52;;
59734;SDS011;64362;45.620;4.920;2023-03-30T07:02:51;4.97;;;1.45;;
59734;SDS011;64362;45.620;4.920;2023-03-30T07:05:24;3.60;;;1.30;;
59734;SDS011;64362;45.620;4.920;2023-03-30T07:07:59;6.33;;;1.50;;
59734;SDS011;64362;45.620;4.920;2023-03-30T07:10:25;5.68;;;1.42;;
59734;SDS011;64362;45.620;4.920;2023-03-30T07:12:52;4.57;;;1.40;;
59734;SDS011;64362;45.620;4.920;2023-03-30T07:15:19;3.15;;;1.30;;
59734;SDS011;64362;45.620;4.920;2023-03-30T07:17:44;3.45;;;1.50;;
59734;SDS011;64362;45.620;4.920;2023-03-30T07:20:11;2.63;;;1.20;;
59734;SDS011;64362;45.620;4.920;2023-03-30T07:23:00;6.45;;;1.70;;
59734;SDS011;64362;45.620;4.920;2023-03-30T07:25:27;3.25;;;1.27;;
59734;SDS011;64362;45.620;4.920;2023-03-30T07:27:53;3.05;;;1.10;;
59734;SDS011;64362;45.620;4.920;2023-03-30T07:30:18;3.40;;;1.20;;
59734;SDS011;64362;45.620;4.920;2023-03-30T07:32:47;2.00;;;1.25;;
59734;SDS011;64362;45.620;4.920;2023-03-30T07:35:14;2.90;;;1.10;;
59734;SDS011;64362;45.620;4.920;2023-03-30T07:37:39;2.97;;;1.20;;
59734;SDS011;64362;45.620;4.920;2023-03-30T07:40:06;3.63;;;1.23;;
59734;SDS011;64362;45.620;4.920;2023-03-30T07:42:33;2.90;;;1.20;;
59734;SDS011;64362;45.620;4.920;2023-03-30T07:44:58;2.97;;;1.20;;
59734;SDS011;64362;45.620;4.920;2023-03-30T07:47:24;4.28;;;1.35;;
59734;SDS011;64362;45.620;4.920;2023-03-30T07:49:51;2.67;;;1.00;;
59734;SDS011;64362;45.620;4.920;2023-03-30T07:52:16;2.38;;;1.10;;
59734;SDS011;64362;45.620;4.920;2023-03-30T07:54:54;1.88;;;1.10;;
59734;SDS011;64362;45.620;4.920;2023-03-30T07:57:26;2.55;;;1.30;;
59734;SDS011;64362;45.620;4.920;2023-03-30T07:59:52;4.70;;;1.42;;
59734;SDS011;64362;45.620;4.920;2023-03-30T08:02:41;3.03;;;1.20;;
59734;SDS011;64362;45.620;4.920;2023-03-30T08:05:10;5.03;;;1.50;;
59734;SDS011;64362;45.620;4.920;2023-03-30T08:07:52;3.80;;;1.75;;
59734;SDS011;64362;45.620;4.920;2023-03-30T08:10:23;3.17;;;1.30;;
59734;SDS011;64362;45.620;4.920;2023-03-30T08:12:48;2.55;;;0.98;;
59734;SDS011;64362;45.620;4.920;2023-03-30T08:15:14;3.42;;;1.23;;
59734;SDS011;64362;45.620;4.920;2023-03-30T08:17:39;3.10;;;1.85;;
59734;SDS011;64362;45.620;4.920;2023-03-30T08:20:05;4.18;;;1.38;;
59734;SDS011;64362;45.620;4.920;2023-03-30T08:22:34;2.72;;;1.30;;
59734;SDS011;64362;45.620;4.920;2023-03-30T08:25:00;2.90;;;1.40;;
59734;SDS011;64362;45.620;4.920;2023-03-30T08:27:26;2.70;;;1.35;;
59734;SDS011;64362;45.620;4.920;2023-03-30T08:29:51;4.63;;;1.23;;
59734;SDS011;64362;45.620;4.920;2023-03-30T08:32:18;2.50;;;1.38;;
59734;SDS011;64362;45.620;4.920;2023-03-30T08:34:44;3.00;;;1.27;;
59734;SDS011;64362;45.620;4.920;2023-03-30T08:37:10;2.30;;;1.35;;
59734;SDS011;64362;45.620;4.920;2023-03-30T08:39:36;2.33;;;1.20;;
59734;SDS011;64362;45.620;4.920;2023-03-30T08:44:44;2.65;;;1.25;;
59734;SDS011;64362;45.620;4.920;2023-03-30T08:47:12;3.67;;;1.30;;
59734;SDS011;64362;45.620;4.920;2023-03-30T08:49:41;2.47;;;1.27;;
59734;SDS011;64362;45.620;4.920;2023-03-30T08:52:12;1.83;;;1.23;;
59734;SDS011;64362;45.620;4.920;2023-03-30T08:54:45;1.67;;;1.10;;
59734;SDS011;64362;45.620;4.920;2023-03-30T09:03:00;4.07;;;1.27;;
59734;SDS011;64362;45.620;4.920;2023-03-30T09:05:31;2.42;;;1.20;;
59734;SDS011;64362;45.620;4.920;2023-03-30T09:08:16;3.55;;;1.23;;
59734;SDS011;64362;45.620;4.920;2023-03-30T09:10:42;3.53;;;1.10;;
59734;SDS011;64362;45.620;4.920;2023-03-30T09:13:11;2.20;;;1.15;;
59734;SDS011;64362;45.620;4.920;2023-03-30T09:15:44;3.05;;;1.38;;
59734;SDS011;64362;45.620;4.920;2023-03-30T09:18:16;3.83;;;1.10;;
59734;SDS011;64362;45.620;4.920;2023-03-30T09:20:42;2.45;;;1.10;;
59734;SDS011;64362;45.620;4.920;2023-03-30T09:23:13;2.15;;;1.00;;
59734;SDS011;64362;45.620;4.920;2023-03-30T09:36:28;2.10;;;1.08;;
59734;SDS011;64362;45.620;4.920;2023-03-30T09:39:09;2.03;;;1.05;;
59734;SDS011;64362;45.620;4.920;2023-03-30T09:44:33;2.33;;;1.02;;
59734;SDS011;64362;45.620;4.920;2023-03-30T09:47:01;3.17;;;1.20;;
59734;SDS011;64362;45.620;4.920;2023-03-30T09:49:38;3.17;;;1.10;;
59734;SDS011;64362;45.620;4.920;2023-03-30T09:52:05;3.00;;;1.20;;
59734;SDS011;64362;45.620;4.920;2023-03-30T09:54:38;3.65;;;1.60;;
59734;SDS011;64362;45.620;4.920;2023-03-30T09:57:08;2.40;;;1.33;;
59734;SDS011;64362;45.620;4.920;2023-03-30T09:59:47;3.75;;;1.20;;
59734;SDS011;64362;45.620;4.920;2023-03-30T10:09:46;2.80;;;1.20;;
59734;SDS011;64362;45.620;4.920;2023-03-30T10:12:11;2.88;;;1.30;;
59734;SDS011;64362;45.620;4.920;2023-03-30T10:14:37;2.13;;;1.20;;
59734;SDS011;64362;45.620;4.920;2023-03-30T10:17:03;4.45;;;1.65;;
59734;SDS011;64362;45.620;4.920;2023-03-30T10:19:29;32.25;;;23.73;;
59734;SDS011;64362;45.620;4.920;2023-03-30T10:21:58;99.78;;;73.43;;
59734;SDS011;64362;45.620;4.920;2023-03-30T10:24:29;150.45;;;108.22;;
59734;SDS011;64362;45.620;4.920;2023-03-30T10:27:16;168.13;;;115.05;;
59734;SDS011;64362;45.620;4.920;2023-03-30T10:29:45;144.90;;;99.28;;
59734;SDS011;64362;45.620;4.920;2023-03-30T10:32:26;122.97;;;86.38;;
59734;SDS011;64362;45.620;4.920;2023-03-30T10:34:54;104.60;;;75.70;;
59734;SDS011;64362;45.620;4.920;2023-03-30T10:39:47;89.13;;;63.33;;
59734;SDS011;64362;45.620;4.920;2023-03-30T10:42:16;91.35;;;62.25;;
59734;SDS011;64362;45.620;4.920;2023-03-30T10:44:49;86.00;;;59.65;;
59734;SDS011;64362;45.620;4.920;2023-03-30T10:52:44;71.28;;;48.60;;
59734;SDS011;64362;45.620;4.920;2023-03-30T10:55:14;63.92;;;43.33;;
59734;SDS011;64362;45.620;4.920;2023-03-30T11:05:40;47.13;;;34.08;;
59734;SDS011;64362;45.620;4.920;2023-03-30T11:10:38;43.38;;;28.08;;
59734;SDS011;64362;45.620;4.920;2023-03-30T11:15:53;36.75;;;24.42;;
59734;SDS011;64362;45.620;4.920;2023-03-30T11:21:00;33.00;;;22.33;;
59734;SDS011;64362;45.620;4.920;2023-03-30T11:23:39;30.10;;;20.92;;
59734;SDS011;64362;45.620;4.920;2023-03-30T11:32:12;24.42;;;15.13;;
59734;SDS011;64362;45.620;4.920;2023-03-30T11:37:31;22.33;;;14.10;;
59734;SDS011;64362;45.620;4.920;2023-03-30T11:40:02;20.83;;;14.13;;
59734;SDS011;64362;45.620;4.920;2023-03-30T11:45:01;18.63;;;11.45;;
59734;SDS011;64362;45.620;4.920;2023-03-30T11:48:06;15.85;;;11.18;;
59734;SDS011;64362;45.620;4.920;2023-03-30T11:51:00;16.27;;;10.82;;
59734;SDS011;64362;45.620;4.920;2023-03-30T11:53:43;15.38;;;9.90;;
59734;SDS011;64362;45.620;4.920;2023-03-30T11:59:25;13.77;;;9.75;;
59734;SDS011;64362;45.620;4.920;2023-03-30T12:07:16;11.13;;;6.78;;
59734;SDS011;64362;45.620;4.920;2023-03-30T12:09:55;9.52;;;6.30;;
59734;SDS011;64362;45.620;4.920;2023-03-30T12:12:33;7.93;;;5.75;;
59734;SDS011;64362;45.620;4.920;2023-03-30T12:17:31;9.30;;;5.45;;
59734;SDS011;64362;45.620;4.920;2023-03-30T12:22:40;10.23;;;5.55;;
59734;SDS011;64362;45.620;4.920;2023-03-30T12:27:57;9.57;;;4.85;;
59734;SDS011;64362;45.620;4.920;2023-03-30T12:30:25;8.13;;;4.32;;
59734;SDS011;64362;45.620;4.920;2023-03-30T12:33:00;7.05;;;4.30;;
59734;SDS011;64362;45.620;4.920;2023-03-30T12:38:15;8.43;;;3.83;;
59734;SDS011;64362;45.620;4.920;2023-03-30T12:40:44;6.72;;;4.05;;
59734;SDS011;64362;45.620;4.920;2023-03-30T12:45:52;9.63;;;4.63;;
59734;SDS011;64362;45.620;4.920;2023-03-30T12:51:56;9.93;;;4.70;;
59734;SDS011;64362;45.620;4.920;2023-03-30T12:54:36;7.43;;;4.32;;
59734;SDS011;64362;45.620;4.920;2023-03-30T13:03:13;9.85;;;4.60;;
59734;SDS011;64362;45.620;4.920;2023-03-30T13:06:04;10.32;;;5.38;;
59734;SDS011;64362;45.620;4.920;2023-03-30T13:08:36;7.28;;;4.43;;
59734;SDS011;64362;45.620;4.920;2023-03-30T13:11:19;8.52;;;4.18;;
59734;SDS011;64362;45.620;4.920;2023-03-30T13:24:31;7.70;;;3.33;;
59734;SDS011;64362;45.620;4.920;2023-03-30T13:29:39;7.30;;;2.92;;
59734;SDS011;64362;45.620;4.920;2023-03-30T13:40:27;4.25;;;2.97;;
59734;SDS011;64362;45.620;4.920;2023-03-30T13:46:34;5.93;;;2.90;;
59734;SDS011;64362;45.620;4.920;2023-03-30T13:51:02;5.45;;;2.55;;
59734;SDS011;64362;45.620;4.920;2023-03-30T13:53:36;6.63;;;2.65;;
59734;SDS011;64362;45.620;4.920;2023-03-30T13:56:05;3.78;;;2.45;;
59734;SDS011;64362;45.620;4.920;2023-03-30T13:58:32;4.97;;;2.67;;
59734;SDS011;64362;45.620;4.920;2023-03-30T14:01:08;6.40;;;3.22;;
59734;SDS011;64362;45.620;4.920;2023-03-30T14:03:40;5.30;;;3.35;;
59734;SDS011;64362;45.620;4.920;2023-03-30T14:08:39;5.63;;;2.75;;
59734;SDS011;64362;45.620;4.920;2023-03-30T14:11:13;6.13;;;2.65;;
59734;SDS011;64362;45.620;4.920;2023-03-30T14:13:45;4.55;;;2.47;;
59734;SDS011;64362;45.620;4.920;2023-03-30T14:16:17;6.07;;;2.55;;
59734;SDS011;64362;45.620;4.920;2023-03-30T14:18:44;7.32;;;2.80;;
59734;SDS011;64362;45.620;4.920;2023-03-30T14:21:11;6.05;;;2.40;;
59734;SDS011;64362;45.620;4.920;2023-03-30T14:23:41;6.45;;;2.83;;
59734;SDS011;64362;45.620;4.920;2023-03-30T14:26:17;4.97;;;3.03;;
59734;SDS011;64362;45.620;4.920;2023-03-30T14:29:01;4.38;;;2.40;;
59734;SDS011;64362;45.620;4.920;2023-03-30T14:31:36;5.53;;;2.50;;
59734;SDS011;64362;45.620;4.920;2023-03-30T14:34:20;4.75;;;2.05;;
59734;SDS011;64362;45.620;4.920;2023-03-30T14:36:58;5.47;;;2.85;;
59734;SDS011;64362;45.620;4.920;2023-03-30T14:39:26;6.13;;;2.40;;
59734;SDS011;64362;45.620;4.920;2023-03-30T14:41:52;5.97;;;2.85;;
59734;SDS011;64362;45.620;4.920;2023-03-30T14:44:18;5.15;;;3.05;;
59734;SDS011;64362;45.620;4.920;2023-03-30T14:46:47;4.97;;;2.17;;
59734;SDS011;64362;45.620;4.920;2023-03-30T14:51:51;5.68;;;2.53;;
59734;SDS011;64362;45.620;4.920;2023-03-30T14:54:19;5.72;;;2.70;;
59734;SDS011;64362;45.620;4.920;2023-03-30T14:56:59;4.70;;;2.33;;
59734;SDS011;64362;45.620;4.920;2023-03-30T14:59:27;6.95;;;2.55;;
59734;SDS011;64362;45.620;4.920;2023-03-30T15:01:54;8.45;;;2.45;;
59734;SDS011;64362;45.620;4.920;2023-03-30T15:04:26;12.00;;;2.85;;
59734;SDS011;64362;45.620;4.920;2023-03-30T15:06:53;7.03;;;2.55;;
59734;SDS011;64362;45.620;4.920;2023-03-30T15:09:20;6.10;;;2.55;;
59734;SDS011;64362;45.620;4.920;2023-03-30T15:11:57;9.75;;;2.92;;
59734;SDS011;64362;45.620;4.920;2023-03-30T15:14:24;10.82;;;3.13;;
59734;SDS011;64362;45.620;4.920;2023-03-30T15:16:51;12.23;;;2.80;;
59734;SDS011;64362;45.620;4.920;2023-03-30T15:21:58;10.15;;;3.15;;
59734;SDS011;64362;45.620;4.920;2023-03-30T15:24:30;6.57;;;2.53;;
59734;SDS011;64362;45.620;4.920;2023-03-30T15:26:57;5.55;;;2.20;;
59734;SDS011;64362;45.620;4.920;2023-03-30T15:29:25;10.35;;;3.00;;
59734;SDS011;64362;45.620;4.920;2023-03-30T15:46:04;9.52;;;2.47;;
59734;SDS011;64362;45.620;4.920;2023-03-30T15:48:35;12.25;;;2.78;;
59734;SDS011;64362;45.620;4.920;2023-03-30T15:53:40;10.60;;;3.55;;
59734;SDS011;64362;45.620;4.920;2023-03-30T15:56:11;7.45;;;2.63;;
59734;SDS011;64362;45.620;4.920;2023-03-30T15:58:41;8.57;;;3.17;;
59734;SDS011;64362;45.620;4.920;2023-03-30T16:01:08;9.13;;;2.72;;
59734;SDS011;64362;45.620;4.920;2023-03-30T16:03:36;10.00;;;3.22;;
59734;SDS011;64362;45.620;4.920;2023-03-30T16:06:04;9.93;;;2.70;;
59734;SDS011;64362;45.620;4.920;2023-03-30T16:08:31;7.03;;;2.72;;
59734;SDS011;64362;45.620;4.920;2023-03-30T16:10:56;5.88;;;2.72;;
59734;SDS011;64362;45.620;4.920;2023-03-30T16:13:22;8.02;;;2.88;;
59734;SDS011;64362;45.620;4.920;2023-03-30T16:15:47;7.63;;;2.55;;
59734;SDS011;64362;45.620;4.920;2023-03-30T16:18:13;5.80;;;2.22;;
59734;SDS011;64362;45.620;4.920;2023-03-30T16:20:40;6.45;;;2.50;;
59734;SDS011;64362;45.620;4.920;2023-03-30T16:23:06;6.90;;;2.70;;
59734;SDS011;64362;45.620;4.920;2023-03-30T16:25:32;5.47;;;2.63;;
59734;SDS011;64362;45.620;4.920;2023-03-30T16:27:58;7.53;;;3.33;;
59734;SDS011;64362;45.620;4.920;2023-03-30T16:32:52;6.85;;;3.00;;
59734;SDS011;64362;45.620;4.920;2023-03-30T16:35:17;6.45;;;3.00;;
59734;SDS011;64362;45.620;4.920;2023-03-30T16:37:43;6.13;;;2.47;;
59734;SDS011;64362;45.620;4.920;2023-03-30T16:42:52;5.50;;;2.85;;
59734;SDS011;64362;45.620;4.920;2023-03-30T16:45:18;4.13;;;2.30;;
59734;SDS011;64362;45.620;4.920;2023-03-30T16:47:43;6.22;;;2.80;;
59734;SDS011;64362;45.620;4.920;2023-03-30T16:50:17;5.32;;;2.67;;
59734;SDS011;64362;45.620;4.920;2023-03-30T16:52:43;4.30;;;2.45;;
59734;SDS011;64362;45.620;4.920;2023-03-30T16:55:08;8.50;;;3.00;;
59734;SDS011;64362;45.620;4.920;2023-03-30T16:57:34;6.75;;;3.17;;
59734;SDS011;64362;45.620;4.920;2023-03-30T17:00:00;8.07;;;2.95;;
59734;SDS011;64362;45.620;4.920;2023-03-30T17:02:26;7.18;;;3.08;;
59734;SDS011;64362;45.620;4.920;2023-03-30T17:04:51;5.97;;;2.83;;
59734;SDS011;64362;45.620;4.920;2023-03-30T17:07:16;6.88;;;3.05;;
59734;SDS011;64362;45.620;4.920;2023-03-30T17:09:42;4.03;;;2.85;;
59734;SDS011;64362;45.620;4.920;2023-03-30T17:12:07;7.15;;;3.13;;
59734;SDS011;64362;45.620;4.920;2023-03-30T17:14:33;6.68;;;3.15;;
59734;SDS011;64362;45.620;4.920;2023-03-30T17:16:58;7.47;;;3.70;;
59734;SDS011;64362;45.620;4.920;2023-03-30T17:19:24;7.40;;;3.50;;
59734;SDS011;64362;45.620;4.920;2023-03-30T17:21:50;7.60;;;3.70;;
59734;SDS011;64362;45.620;4.920;2023-03-30T17:24:15;7.10;;;3.28;;
59734;SDS011;64362;45.620;4.920;2023-03-30T17:26:41;6.82;;;3.05;;
59734;SDS011;64362;45.620;4.920;2023-03-30T17:29:07;5.70;;;3.10;;
59734;SDS011;64362;45.620;4.920;2023-03-30T17:31:33;10.65;;;3.55;;
59734;SDS011;64362;45.620;4.920;2023-03-30T17:33:59;7.00;;;3.45;;
59734;SDS011;64362;45.620;4.920;2023-03-30T17:36:25;7.10;;;3.33;;
59734;SDS011;64362;45.620;4.920;2023-03-30T17:38:52;4.97;;;2.92;;
59734;SDS011;64362;45.620;4.920;2023-03-30T17:41:18;6.00;;;3.22;;
59734;SDS011;64362;45.620;4.920;2023-03-30T17:43:45;5.72;;;3.35;;
59734;SDS011;64362;45.620;4.920;2023-03-30T17:46:12;6.47;;;3.45;;
59734;SDS011;64362;45.620;4.920;2023-03-30T17:48:38;6.78;;;3.83;;
59734;SDS011;64362;45.620;4.920;2023-03-30T17:51:04;7.00;;;3.90;;
59734;SDS011;64362;45.620;4.920;2023-03-30T17:53:30;9.82;;;4.20;;
59734;SDS011;64362;45.620;4.920;2023-03-30T17:55:56;7.75;;;3.65;;
59734;SDS011;64362;45.620;4.920;2023-03-30T17:58:29;7.28;;;3.80;;
59734;SDS011;64362;45.620;4.920;2023-03-30T18:00:57;6.75;;;3.85;;
59734;SDS011;64362;45.620;4.920;2023-03-30T18:03:32;5.95;;;3.95;;
59734;SDS011;64362;45.620;4.920;2023-03-30T18:05:59;8.30;;;3.83;;
59734;SDS011;64362;45.620;4.920;2023-03-30T18:08:25;7.10;;;4.47;;
59734;SDS011;64362;45.620;4.920;2023-03-30T18:10:52;7.05;;;4.13;;
59734;SDS011;64362;45.620;4.920;2023-03-30T18:13:20;10.00;;;4.13;;
59734;SDS011;64362;45.620;4.920;2023-03-30T18:15:47;5.43;;;3.85;;
59734;SDS011;64362;45.620;4.920;2023-03-30T18:18:14;6.43;;;3.63;;
59734;SDS011;64362;45.620;4.920;2023-03-30T18:20:46;7.82;;;4.00;;
59734;SDS011;64362;45.620;4.920;2023-03-30T18:23:13;8.60;;;3.53;;
59734;SDS011;64362;45.620;4.920;2023-03-30T18:25:38;7.40;;;3.65;;
59734;SDS011;64362;45.620;4.920;2023-03-30T18:28:05;8.45;;;3.42;;
59734;SDS011;64362;45.620;4.920;2023-03-30T18:30:38;8.15;;;3.28;;
59734;SDS011;64362;45.620;4.920;2023-03-30T18:33:04;7.72;;;3.60;;
59734;SDS011;64362;45.620;4.920;2023-03-30T18:35:31;7.50;;;3.35;;
59734;SDS011;64362;45.620;4.920;2023-03-30T18:37:58;6.30;;;3.95;;